Highland-University Park's Hourly Summary for Friday, April 14, 2017
Hour Temp
(f)
RH
(%)
Solar Rad.
(MJ/m2)
Rainfall
(in)
Wind
(mph)
4/14/2017 12:00 AM 70 64 0 0 2.19
4/14/2017 1:00 AM 71 59 0 0 1.61
4/14/2017 2:00 AM 70 56 0 0 1.77
4/14/2017 3:00 AM 70 56 0 0 1.29
4/14/2017 4:00 AM 69 61 0 0 2.58
4/14/2017 5:00 AM 68 62 0 0 1.61
4/14/2017 6:00 AM 67 72 0 0 1.29
4/14/2017 7:00 AM 66 79 0 0 0.86
4/14/2017 8:00 AM 65 80 0.07 0 1.35
4/14/2017 9:00 AM 65 83 0.31 0 0.45
4/14/2017 10:00 AM 68 77 0.71 0 1.13
4/14/2017 11:00 AM 70 70 1.26 0 2.02
4/14/2017 12:00 PM 73 55 1.59 0 2.22
4/14/2017 1:00 PM 75 52 1.99 0 2.62
4/14/2017 2:00 PM 78 44 2.88 0 3.13
4/14/2017 3:00 PM 79 44 2.23 0 3.09
4/14/2017 4:00 PM 80 40 2.27 0 2.42
4/14/2017 5:00 PM 80 40 2.05 0 2.53
4/14/2017 6:00 PM 80 41 1.7 0 3.96
4/14/2017 7:00 PM 79 43 0.55 0 3.4
4/14/2017 8:00 PM 77 46 0.1 0 2.29
4/14/2017 9:00 PM 74 51 0 0 2.05
4/14/2017 10:00 PM 73 56 0 0 1.72
4/14/2017 11:00 PM 72 60 0 0 2.49
Data Summary 72 57 17.71 0.00 2.09